createdAt,value
2019-01-16T00:01:53.592Z,65.80
2019-01-16T00:04:21.000Z,65.20
2019-01-16T00:06:54.187Z,65.10
2019-01-16T00:09:30.328Z,66.00
2019-01-16T00:11:54.601Z,66.00
2019-01-16T00:14:25.218Z,66.80
2019-01-16T00:16:45.197Z,66.30
2019-01-16T00:19:06.624Z,66.20
2019-01-16T00:21:19.235Z,66.20
2019-01-16T00:23:39.364Z,66.80
2019-01-16T00:26:06.667Z,67.10
2019-01-16T00:28:32.795Z,66.60
2019-01-16T00:30:50.307Z,67.10
2019-01-16T00:33:14.800Z,67.60
2019-01-16T00:35:30.059Z,67.00
2019-01-16T00:37:54.393Z,68.60
2019-01-16T00:40:20.420Z,67.90
2019-01-16T00:42:53.828Z,67.80
2019-01-16T00:45:18.071Z,68.20
2019-01-16T00:47:37.772Z,68.30
2019-01-16T00:49:55.248Z,67.90
2019-01-16T00:52:19.979Z,69.10
2019-01-16T00:54:44.772Z,68.70
2019-01-16T00:57:05.010Z,68.50
2019-01-16T00:59:35.473Z,68.90
2019-01-16T01:01:56.891Z,68.40
2019-01-16T01:04:30.761Z,68.90
2019-01-16T01:06:52.284Z,68.80
2019-01-16T01:09:13.924Z,68.50
2019-01-16T01:11:34.252Z,68.70
2019-01-16T01:13:54.272Z,68.60
2019-01-16T01:16:15.673Z,68.60
2019-01-16T01:18:31.996Z,68.70
2019-01-16T01:20:46.552Z,68.90
2019-01-16T01:23:20.383Z,69.00
2019-01-16T01:25:41.885Z,68.80
2019-01-16T01:27:54.663Z,68.70
2019-01-16T01:30:31.500Z,69.00
2019-01-16T01:32:45.943Z,69.40
2019-01-16T01:35:06.301Z,68.90
2019-01-16T01:37:26.447Z,69.60
2019-01-16T01:39:54.299Z,69.50
2019-01-16T01:42:17.071Z,69.30
2019-01-16T01:44:41.735Z,69.80
2019-01-16T01:46:53.853Z,70.20
2019-01-16T01:49:13.806Z,70.10
2019-01-16T01:51:50.297Z,70.10
2019-01-16T01:54:10.399Z,70.40
2019-01-16T01:56:39.174Z,70.00
2019-01-16T01:58:50.634Z,70.30
2019-01-16T02:01:27.271Z,69.80
2019-01-16T02:03:47.243Z,70.30
2019-01-16T02:06:04.197Z,70.90
2019-01-16T02:08:31.038Z,70.40
2019-01-16T02:10:55.340Z,69.80
2019-01-16T02:13:10.905Z,71.50
2019-01-16T02:15:26.314Z,71.30
2019-01-16T02:17:37.963Z,71.70
2019-01-16T02:19:58.103Z,71.50
2019-01-16T02:22:31.431Z,72.00
2019-01-16T02:24:51.522Z,72.40
2019-01-16T02:27:13.008Z,72.30
2019-01-16T02:29:30.803Z,72.30
2019-01-16T02:31:53.319Z,72.70
2019-01-16T02:34:13.500Z,73.40
2019-01-16T02:36:30.079Z,73.90
2019-01-16T02:38:50.067Z,73.40
2019-01-16T02:41:06.908Z,73.40
2019-01-16T02:43:28.327Z,73.50
2019-01-16T02:45:45.983Z,73.60
2019-01-16T02:48:06.187Z,73.20
2019-01-16T02:50:36.479Z,73.90
2019-01-16T02:52:53.266Z,73.80
2019-01-16T02:55:14.672Z,73.70
2019-01-16T02:57:31.765Z,74.40
2019-01-16T02:59:58.787Z,73.70
2019-01-16T03:02:23.184Z,73.30
2019-01-16T03:04:43.308Z,73.40
2019-01-16T03:06:57.743Z,73.80
2019-01-16T03:09:11.463Z,74.10
2019-01-16T03:11:23.274Z,73.40
2019-01-16T03:13:44.812Z,73.00
2019-01-16T03:16:00.243Z,73.20
2019-01-16T03:18:20.291Z,74.10
2019-01-16T03:20:51.377Z,73.50
2019-01-16T03:23:11.493Z,73.60
2019-01-16T03:25:33.080Z,73.40
2019-01-16T03:28:03.183Z,74.10
2019-01-16T03:30:23.832Z,73.50
2019-01-16T03:32:54.289Z,73.20
2019-01-16T03:35:01.501Z,73.10
2019-01-16T03:37:31.876Z,72.80
2019-01-16T03:40:05.175Z,73.00
2019-01-16T03:42:32.749Z,73.60
2019-01-16T03:44:44.560Z,73.50
2019-01-16T03:47:06.009Z,73.00
2019-01-16T03:49:26.150Z,73.90
2019-01-16T03:51:46.160Z,73.90
2019-01-16T03:54:10.873Z,73.70
2019-01-16T03:56:41.300Z,74.10
2019-01-16T03:59:05.779Z,73.90
2019-01-16T04:01:29.167Z,74.10
2019-01-16T04:03:53.450Z,73.80
2019-01-16T04:06:02.931Z,74.20
2019-01-16T04:08:23.104Z,73.70
2019-01-16T04:10:43.227Z,73.90
2019-01-16T04:13:04.639Z,73.90
2019-01-16T04:15:23.248Z,74.10
2019-01-16T04:17:50.270Z,74.50
2019-01-16T04:20:02.108Z,74.30
2019-01-16T04:22:22.351Z,74.30
2019-01-16T04:24:42.452Z,73.60
2019-01-16T04:27:02.499Z,73.70
2019-01-16T04:29:22.191Z,73.70
2019-01-16T04:31:32.263Z,73.70
2019-01-16T04:33:56.679Z,73.30
2019-01-16T04:36:07.410Z,73.10
2019-01-16T04:38:30.564Z,73.70
2019-01-16T04:40:48.412Z,74.40
2019-01-16T04:43:12.475Z,73.30
2019-01-16T04:45:34.250Z,73.80
2019-01-16T04:47:48.963Z,73.90
2019-01-16T04:50:00.434Z,73.40
2019-01-16T04:52:21.923Z,73.90
2019-01-16T04:54:41.959Z,73.70
2019-01-16T04:57:06.223Z,73.90
2019-01-16T04:59:30.179Z,73.40
2019-01-16T05:01:51.544Z,73.30
2019-01-16T05:04:15.940Z,73.00
2019-01-16T05:06:26.040Z,73.10
2019-01-16T05:08:53.303Z,73.20
2019-01-16T05:11:05.593Z,72.30
2019-01-16T05:13:18.291Z,72.60
2019-01-16T05:15:51.838Z,72.50
2019-01-16T05:18:11.690Z,72.40
2019-01-16T05:20:29.535Z,72.10
2019-01-16T05:23:08.841Z,71.80
2019-01-16T05:25:28.566Z,71.60
2019-01-16T05:27:56.486Z,71.90
2019-01-16T05:30:12.308Z,71.70
2019-01-16T05:32:28.986Z,71.80
2019-01-16T05:34:45.701Z,71.00
2019-01-16T05:36:59.955Z,71.20
2019-01-16T05:39:20.719Z,71.30
2019-01-16T05:41:41.014Z,70.90
2019-01-16T05:44:02.562Z,71.00
2019-01-16T05:46:19.435Z,70.40
2019-01-16T05:48:49.638Z,70.30
2019-01-16T05:51:20.147Z,70.30
2019-01-16T05:53:45.262Z,70.50
2019-01-16T05:56:06.513Z,70.20
2019-01-16T05:58:36.588Z,70.30
2019-01-16T06:00:56.561Z,70.40
2019-01-16T06:03:16.804Z,70.50
2019-01-16T06:05:37.085Z,70.80
2019-01-16T06:08:04.539Z,70.70
2019-01-16T06:10:27.407Z,70.50
2019-01-16T06:12:52.379Z,70.90
2019-01-16T06:15:12.403Z,70.50
2019-01-16T06:20:09.234Z,71.20
2019-01-16T06:22:30.498Z,71.50
2019-01-16T06:24:43.259Z,70.90
2019-01-16T06:27:07.782Z,70.50
2019-01-16T06:29:27.395Z,70.50
2019-01-16T06:31:47.311Z,70.70
2019-01-16T06:33:59.462Z,70.30
2019-01-16T06:36:11.770Z,70.70
2019-01-16T06:38:33.147Z,70.00
2019-01-16T06:40:47.239Z,69.90
2019-01-16T06:42:58.946Z,70.70
2019-01-16T06:45:20.322Z,70.50
2019-01-16T06:47:28.904Z,70.40
2019-01-16T06:50:01.531Z,70.80
2019-01-16T06:52:06.619Z,70.00
2019-01-16T06:54:46.367Z,70.00
2019-01-16T06:57:16.819Z,69.60
2019-01-16T06:59:29.231Z,69.60
2019-01-16T07:01:59.958Z,69.20
2019-01-16T07:04:16.567Z,69.00
2019-01-16T07:06:46.958Z,68.90
2019-01-16T07:08:57.558Z,68.70
2019-01-16T07:11:17.616Z,68.90
2019-01-16T07:13:45.023Z,68.20
2019-01-16T07:16:04.905Z,68.70
2019-01-16T07:18:44.587Z,68.60
2019-01-16T07:21:23.995Z,68.60
2019-01-16T07:23:37.694Z,67.90
2019-01-16T07:25:53.994Z,68.00
2019-01-16T07:28:24.023Z,68.60
2019-01-16T07:30:48.375Z,69.40
2019-01-16T07:32:59.195Z,69.50
2019-01-16T07:35:23.395Z,69.30
2019-01-16T07:37:40.902Z,69.50
2019-01-16T07:40:04.914Z,69.60
2019-01-16T07:42:20.524Z,69.70
2019-01-16T07:44:45.027Z,70.30
2019-01-16T07:46:54.938Z,70.40
2019-01-16T07:49:14.855Z,70.00
2019-01-16T07:51:32.651Z,70.40
2019-01-16T07:54:02.742Z,70.20
2019-01-16T07:56:36.266Z,70.50
2019-01-16T07:59:00.548Z,70.90
2019-01-16T08:01:11.119Z,70.30
2019-01-16T08:03:34.278Z,70.00
2019-01-16T08:06:02.877Z,69.90
2019-01-16T08:08:36.575Z,69.40
2019-01-16T08:10:48.726Z,69.20
2019-01-16T08:13:21.870Z,69.50
2019-01-16T08:15:43.276Z,69.70
2019-01-16T08:17:54.908Z,69.70
2019-01-16T08:20:31.255Z,69.50
2019-01-16T08:22:53.667Z,70.40
2019-01-16T08:25:24.789Z,70.00
2019-01-16T08:27:41.986Z,71.50
2019-01-16T08:29:58.859Z,72.20
2019-01-16T08:32:18.832Z,73.00
2019-01-16T08:34:38.785Z,73.00
2019-01-16T08:36:52.607Z,73.00
2019-01-16T08:39:10.587Z,73.00
2019-01-16T08:41:22.855Z,74.40
2019-01-16T08:43:44.434Z,74.80
2019-01-16T08:46:05.919Z,74.80
2019-01-16T08:48:33.422Z,74.50
2019-01-16T08:50:54.910Z,75.70
2019-01-16T08:53:25.030Z,75.20
2019-01-16T08:55:45.005Z,76.00
2019-01-16T08:58:08.202Z,77.00
2019-01-16T09:00:34.406Z,77.20
2019-01-16T09:02:58.677Z,77.10
2019-01-16T09:05:18.043Z,77.80
2019-01-16T09:07:45.371Z,77.30
2019-01-16T09:10:06.262Z,78.20
2019-01-16T09:12:26.199Z,78.50
2019-01-16T09:14:45.367Z,78.50
2019-01-16T09:17:05.563Z,78.90
2019-01-16T09:19:29.783Z,79.00
2019-01-16T09:22:09.144Z,79.20
2019-01-16T09:24:27.838Z,78.90
2019-01-16T09:26:39.812Z,78.80
2019-01-16T09:29:07.471Z,78.30
2019-01-16T09:31:23.918Z,79.50
2019-01-16T09:33:45.350Z,79.30
2019-01-16T09:36:05.525Z,79.20
2019-01-16T09:38:26.351Z,79.50
2019-01-16T09:40:56.390Z,80.60
2019-01-16T09:43:19.650Z,80.50
2019-01-16T09:45:46.732Z,80.30
2019-01-16T09:48:08.342Z,81.70
2019-01-16T09:50:47.977Z,81.40
2019-01-16T09:53:16.794Z,82.00
2019-01-16T09:55:32.476Z,81.90
2019-01-16T09:57:45.155Z,83.20
2019-01-16T10:00:04.779Z,83.70
2019-01-16T10:02:32.046Z,84.60
2019-01-16T10:04:45.103Z,84.10
2019-01-16T10:06:53.876Z,84.30
2019-01-16T10:09:13.516Z,84.70
2019-01-16T10:11:43.694Z,83.80
2019-01-16T10:14:05.100Z,84.60
2019-01-16T10:16:18.754Z,84.80
2019-01-16T10:18:58.362Z,84.20
2019-01-16T10:21:22.363Z,85.30
2019-01-16T10:23:49.388Z,84.40
2019-01-16T10:26:35.843Z,84.60
2019-01-16T10:29:06.135Z,84.80
2019-01-16T10:31:26.199Z,83.50
2019-01-16T10:33:52.372Z,83.00
2019-01-16T10:36:12.359Z,82.60
2019-01-16T10:38:31.856Z,83.40
2019-01-16T10:40:53.260Z,82.80
2019-01-16T10:43:07.087Z,83.00
2019-01-16T10:45:31.966Z,83.70
2019-01-16T10:47:40.522Z,82.70
2019-01-16T10:50:05.107Z,82.40
2019-01-16T10:52:22.444Z,81.60
2019-01-16T10:54:39.059Z,79.20
2019-01-16T10:57:00.460Z,75.70
2019-01-16T10:59:21.675Z,75.00
2019-01-16T11:01:41.891Z,73.40
2019-01-16T11:04:06.216Z,72.20
2019-01-16T11:06:19.312Z,72.00
2019-01-16T11:08:37.955Z,70.50
2019-01-16T11:10:59.651Z,70.00
2019-01-16T11:13:30.056Z,69.90
2019-01-16T11:15:54.605Z,70.50
2019-01-16T11:18:18.784Z,70.50
2019-01-16T11:20:55.159Z,70.00
2019-01-16T11:23:25.748Z,70.80
2019-01-16T11:25:40.388Z,70.70
2019-01-16T11:28:01.917Z,71.90
2019-01-16T11:30:22.943Z,72.40
2019-01-16T11:32:42.927Z,73.10
2019-01-16T11:35:04.800Z,70.90
2019-01-16T11:37:28.884Z,69.40
2019-01-16T11:40:05.783Z,68.70
2019-01-16T11:42:36.059Z,69.80
2019-01-16T11:44:56.523Z,68.00
2019-01-16T11:47:12.277Z,68.50
2019-01-16T11:49:51.964Z,68.10
2019-01-16T11:52:13.483Z,68.70
2019-01-16T11:54:37.574Z,68.30
2019-01-16T11:57:01.064Z,68.60
2019-01-16T11:59:12.106Z,68.90
2019-01-16T12:01:42.430Z,68.10
2019-01-16T12:03:59.526Z,68.70
2019-01-16T12:06:21.295Z,68.70
2019-01-16T12:08:45.564Z,68.60
2019-01-16T12:11:04.259Z,70.00
2019-01-16T12:13:12.665Z,69.30
2019-01-16T12:15:43.956Z,69.70
2019-01-16T12:18:14.678Z,69.90
2019-01-16T12:20:34.971Z,70.40
2019-01-16T12:22:55.042Z,71.80
2019-01-16T12:25:14.984Z,71.30
2019-01-16T12:27:42.524Z,71.70
2019-01-16T12:30:07.200Z,71.90
2019-01-16T12:32:18.748Z,71.50
2019-01-16T12:34:34.659Z,71.80
2019-01-16T12:36:54.853Z,71.80
2019-01-16T12:39:14.747Z,72.60
2019-01-16T12:41:36.238Z,73.10
2019-01-16T12:44:03.781Z,72.70
2019-01-16T12:46:20.010Z,71.50
2019-01-16T12:48:39.854Z,71.90
2019-01-16T12:51:00.230Z,73.40
2019-01-16T12:53:21.716Z,73.10
2019-01-16T12:55:53.286Z,73.40
2019-01-16T12:58:20.537Z,75.10
2019-01-16T13:00:40.784Z,75.10
2019-01-16T13:03:05.682Z,74.70
2019-01-16T13:05:37.068Z,75.50
2019-01-16T13:07:49.142Z,75.70
2019-01-16T13:10:01.910Z,75.70
2019-01-16T13:12:18.166Z,75.00
2019-01-16T13:14:35.011Z,74.50
2019-01-16T13:16:46.719Z,75.00
2019-01-16T13:19:17.111Z,76.00
2019-01-16T13:21:40.089Z,75.10
2019-01-16T13:24:07.223Z,74.70
2019-01-16T13:26:27.540Z,74.20
2019-01-16T13:28:48.973Z,73.40
2019-01-16T13:31:09.008Z,73.00
2019-01-16T13:33:48.546Z,72.00
2019-01-16T13:36:07.111Z,71.30
2019-01-16T13:38:22.151Z,70.50
2019-01-16T13:40:42.017Z,70.90
2019-01-16T13:42:52.379Z,70.50
2019-01-16T13:45:25.922Z,69.10
2019-01-16T13:47:56.537Z,68.50
2019-01-16T13:50:26.523Z,68.40
2019-01-16T13:52:40.671Z,68.70
2019-01-16T13:55:04.692Z,68.60
2019-01-16T13:57:35.271Z,67.80
2019-01-16T13:59:59.508Z,67.90
2019-01-16T14:02:26.971Z,68.70
2019-01-16T14:04:47.120Z,68.30
2019-01-16T14:07:08.530Z,68.00
2019-01-16T14:09:29.310Z,68.10
2019-01-16T14:11:49.281Z,66.90
2019-01-16T14:14:09.255Z,66.70
2019-01-16T14:16:42.600Z,66.50
2019-01-16T14:19:07.166Z,66.20
2019-01-16T14:21:22.124Z,66.70
2019-01-16T14:23:43.633Z,67.90
2019-01-16T14:26:03.782Z,67.40
2019-01-16T14:28:37.707Z,68.50
2019-01-16T14:30:57.815Z,68.40
2019-01-16T14:33:22.062Z,68.60
2019-01-16T14:35:52.454Z,69.50
2019-01-16T14:38:11.251Z,69.30
2019-01-16T14:40:34.363Z,70.60
2019-01-16T14:42:50.915Z,69.60
2019-01-16T14:45:10.128Z,70.70
2019-01-16T14:47:30.037Z,70.90
2019-01-16T14:50:09.554Z,70.40
2019-01-16T14:52:40.293Z,70.70
2019-01-16T14:55:10.519Z,70.90
2019-01-16T14:57:40.977Z,70.50
2019-01-16T15:00:14.017Z,70.20
2019-01-16T15:02:38.444Z,70.10
2019-01-16T15:04:58.372Z,70.00
2019-01-16T15:07:19.075Z,70.10
2019-01-16T15:09:39.072Z,70.50
2019-01-16T15:11:52.556Z,69.80
2019-01-16T15:14:12.583Z,69.50
2019-01-16T15:16:34.211Z,69.10
2019-01-16T15:18:58.419Z,69.70
2019-01-16T15:21:13.671Z,69.30
2019-01-16T15:23:35.051Z,69.20
2019-01-16T15:25:55.967Z,70.20
2019-01-16T15:28:08.995Z,69.80
2019-01-16T15:30:20.057Z,70.20
2019-01-16T15:32:39.776Z,69.30
2019-01-16T15:35:01.204Z,68.90
2019-01-16T15:37:25.493Z,68.30
2019-01-16T15:39:47.606Z,69.00
2019-01-16T15:42:19.032Z,68.40
2019-01-16T15:44:46.820Z,68.30
2019-01-16T15:46:56.712Z,69.30
2019-01-16T15:49:16.843Z,69.00
2019-01-16T15:51:34.349Z,68.60
2019-01-16T15:53:54.275Z,68.50
2019-01-16T15:56:14.608Z,67.80
2019-01-16T15:58:34.700Z,68.10
2019-01-16T16:00:56.675Z,67.40
2019-01-16T16:03:16.398Z,67.00
2019-01-16T16:05:43.683Z,66.80
2019-01-16T16:08:03.785Z,67.00
2019-01-16T16:10:15.371Z,67.00
2019-01-16T16:12:26.595Z,66.80
2019-01-16T16:14:44.179Z,66.70
2019-01-16T16:16:59.560Z,66.50
2019-01-16T16:19:23.159Z,66.90
2019-01-16T16:21:43.704Z,67.20
2019-01-16T16:23:54.190Z,67.90
2019-01-16T16:26:02.650Z,67.30
2019-01-16T16:28:26.803Z,68.00
2019-01-16T16:30:45.149Z,67.60
2019-01-16T16:32:59.914Z,68.00
2019-01-16T16:35:20.232Z,67.80
2019-01-16T16:37:53.562Z,67.50
2019-01-16T16:40:02.922Z,67.10
2019-01-16T16:42:30.169Z,66.90
2019-01-16T16:44:42.584Z,66.30
2019-01-16T16:47:09.117Z,66.00
2019-01-16T16:49:42.945Z,66.40
2019-01-16T16:51:57.223Z,66.50
2019-01-16T16:54:18.800Z,66.30
2019-01-16T16:56:51.410Z,66.30
2019-01-16T16:59:21.962Z,66.50
2019-01-16T17:01:36.117Z,66.80
2019-01-16T17:04:02.107Z,67.00
2019-01-16T17:07:02.227Z,66.90
2019-01-16T17:09:29.646Z,67.30
2019-01-16T17:11:56.883Z,65.90
2019-01-16T17:14:11.759Z,65.60
2019-01-16T17:16:48.346Z,66.30
2019-01-16T17:19:14.252Z,66.00
2019-01-16T17:21:41.532Z,66.00
2019-01-16T17:24:06.129Z,65.50
2019-01-16T17:26:32.346Z,66.20
2019-01-16T17:28:57.729Z,66.80
2019-01-16T17:31:15.686Z,66.80
2019-01-16T17:33:43.113Z,67.70
2019-01-16T17:35:56.450Z,67.00
2019-01-16T17:38:20.434Z,67.40
2019-01-16T17:40:40.203Z,67.70
2019-01-16T17:43:10.206Z,67.90
2019-01-16T17:45:47.584Z,68.20
2019-01-16T17:48:09.222Z,69.50
2019-01-16T17:50:30.054Z,69.40
2019-01-16T17:52:50.175Z,69.50
2019-01-16T17:55:17.374Z,70.70
2019-01-16T17:57:31.726Z,70.80
2019-01-16T17:59:45.674Z,72.00
2019-01-16T18:01:58.070Z,71.50
2019-01-16T18:04:06.714Z,72.70
2019-01-16T18:06:36.615Z,72.80
2019-01-16T18:09:01.353Z,72.80
2019-01-16T18:11:45.378Z,72.50
2019-01-16T18:14:08.247Z,74.30
2019-01-16T18:16:32.479Z,72.80
2019-01-16T18:18:46.624Z,72.60
2019-01-16T18:21:08.121Z,72.20
2019-01-16T18:23:27.946Z,72.30
2019-01-16T18:26:04.522Z,71.70
2019-01-16T18:28:21.447Z,70.70
2019-01-16T18:30:41.842Z,70.90
2019-01-16T18:32:55.649Z,70.40
2019-01-16T18:35:04.002Z,71.40
2019-01-16T18:37:24.243Z,70.70
2019-01-16T18:39:45.646Z,70.30
2019-01-16T18:42:10.338Z,70.40
2019-01-16T18:44:31.827Z,70.50
2019-01-16T18:46:41.660Z,70.70
2019-01-16T18:49:01.746Z,70.50
2019-01-16T18:51:21.831Z,70.30
2019-01-16T18:53:49.066Z,69.90
2019-01-16T18:56:11.046Z,71.10
2019-01-16T18:58:38.165Z,72.20
2019-01-16T19:00:58.535Z,73.00
2019-01-16T19:03:23.227Z,72.40
2019-01-16T19:05:36.086Z,74.20
2019-01-16T19:07:52.934Z,74.70
2019-01-16T19:10:20.040Z,75.10
2019-01-16T19:12:47.642Z,75.30
2019-01-16T19:15:00.222Z,76.40
2019-01-16T19:17:27.778Z,77.90
2019-01-16T19:19:40.013Z,78.30
2019-01-16T19:21:53.091Z,78.30
2019-01-16T19:24:20.600Z,77.70
2019-01-16T19:26:42.110Z,79.30
2019-01-16T19:29:08.118Z,78.70
2019-01-16T19:31:28.468Z,79.10
2019-01-16T19:33:55.158Z,80.30
2019-01-16T19:36:12.570Z,79.10
2019-01-16T19:38:43.279Z,79.40
2019-01-16T19:41:02.954Z,79.10
2019-01-16T19:43:24.238Z,78.80
2019-01-16T19:45:46.190Z,77.90
2019-01-16T19:48:06.258Z,78.00
2019-01-16T19:50:21.822Z,77.20
2019-01-16T19:52:42.718Z,76.70
2019-01-16T19:55:07.686Z,76.70
2019-01-16T19:57:29.337Z,76.60
2019-01-16T19:59:56.610Z,76.10
2019-01-16T20:02:33.316Z,73.70
2019-01-16T20:04:53.008Z,72.20
2019-01-16T20:07:13.060Z,71.80
2019-01-16T20:09:33.083Z,72.30
2019-01-16T20:11:52.650Z,72.90
2019-01-16T20:14:12.440Z,72.90
2019-01-16T20:16:44.718Z,72.90
2019-01-16T20:19:17.800Z,73.00
2019-01-16T20:21:37.371Z,75.00
2019-01-16T20:24:07.683Z,73.20
2019-01-16T20:26:27.639Z,74.40
2019-01-16T20:28:55.403Z,76.10
2019-01-16T20:31:22.428Z,75.70
2019-01-16T20:33:34.087Z,75.60
2019-01-16T20:35:58.975Z,77.20
2019-01-16T20:38:20.487Z,78.50
2019-01-16T20:40:40.750Z,78.70
2019-01-16T20:42:52.184Z,77.40
2019-01-16T20:45:19.873Z,78.00
2019-01-16T20:47:43.625Z,78.70
2019-01-16T20:50:05.314Z,79.90
2019-01-16T20:52:29.548Z,79.30
2019-01-16T20:54:40.439Z,78.50
2019-01-16T20:56:55.070Z,80.20
2019-01-16T20:59:17.604Z,80.40
2019-01-16T21:01:46.210Z,79.40
2019-01-16T21:04:07.939Z,80.40
2019-01-16T21:06:28.284Z,80.10
2019-01-16T21:08:50.835Z,80.00
2019-01-16T21:11:10.720Z,79.90
2019-01-16T21:13:32.091Z,80.20
2019-01-16T21:15:52.031Z,80.90
2019-01-16T21:18:17.847Z,81.00
2019-01-16T21:20:37.906Z,81.00
2019-01-16T21:23:08.263Z,82.40
2019-01-16T21:25:29.778Z,83.30
2019-01-16T21:27:57.019Z,81.00
2019-01-16T21:30:21.482Z,81.60
2019-01-16T21:32:41.058Z,82.40
2019-01-16T21:34:49.726Z,83.50
2019-01-16T21:37:05.453Z,83.00
2019-01-16T21:39:38.954Z,83.30
2019-01-16T21:41:51.539Z,82.60
2019-01-16T21:44:21.790Z,83.90
2019-01-16T21:46:42.072Z,83.30
2019-01-16T21:49:09.006Z,83.50
2019-01-16T21:51:34.404Z,82.30
2019-01-16T21:54:07.745Z,82.90
2019-01-16T21:56:28.171Z,83.20
2019-01-16T21:58:49.868Z,82.70
2019-01-16T22:01:11.430Z,83.20
2019-01-16T22:03:19.741Z,83.10
2019-01-16T22:05:42.059Z,82.20
2019-01-16T22:08:02.286Z,81.20
2019-01-16T22:10:23.665Z,79.60
2019-01-16T22:12:39.439Z,77.40
2019-01-16T22:15:02.914Z,76.20
2019-01-16T22:17:18.882Z,75.30
2019-01-16T22:19:40.119Z,73.80
2019-01-16T22:22:00.238Z,72.20
2019-01-16T22:24:23.370Z,71.50
2019-01-16T22:26:38.946Z,71.00
2019-01-16T22:29:03.258Z,70.60
2019-01-16T22:31:31.967Z,70.50
2019-01-16T22:33:56.225Z,69.30
2019-01-16T22:36:11.935Z,69.90
2019-01-16T22:38:24.838Z,69.30
2019-01-16T22:41:01.437Z,68.80
2019-01-16T22:43:28.717Z,68.70
2019-01-16T22:45:39.746Z,68.90
2019-01-16T22:47:51.256Z,68.70
2019-01-16T22:50:11.079Z,69.10
2019-01-16T22:52:23.946Z,68.70
2019-01-16T22:54:57.395Z,68.40
2019-01-16T22:57:12.807Z,67.70
2019-01-16T22:59:32.594Z,68.40
2019-01-16T23:01:53.546Z,68.10
2019-01-16T23:04:08.622Z,67.90
2019-01-16T23:06:28.873Z,67.40
2019-01-16T23:08:39.126Z,67.50
2019-01-16T23:11:18.582Z,67.30
2019-01-16T23:13:43.977Z,66.80
2019-01-16T23:16:02.195Z,67.10
2019-01-16T23:18:22.789Z,66.50
2019-01-16T23:20:43.037Z,66.50
2019-01-16T23:22:54.070Z,66.70
2019-01-16T23:25:18.045Z,67.00
2019-01-16T23:27:39.962Z,66.50
2019-01-16T23:30:02.879Z,66.40
2019-01-16T23:32:42.630Z,67.00
2019-01-16T23:35:12.410Z,66.90
2019-01-16T23:37:29.076Z,66.30
2019-01-16T23:39:49.194Z,66.70
2019-01-16T23:42:16.546Z,66.80
2019-01-16T23:44:33.226Z,66.50
2019-01-16T23:46:53.411Z,66.60
2019-01-16T23:49:07.715Z,66.40
2019-01-16T23:51:35.315Z,66.30
2019-01-16T23:53:56.150Z,66.50
2019-01-16T23:56:06.913Z,67.20
2019-01-16T23:58:30.520Z,66.40
